createdAt,value
2022-12-19T00:00:38.810Z,78.85
2022-12-19T00:03:41.385Z,78.69
2022-12-19T00:06:44.281Z,77.70
2022-12-19T00:09:46.678Z,79.84
2022-12-19T00:12:49.025Z,77.93
2022-12-19T00:15:51.730Z,79.86
2022-12-19T00:18:55.780Z,79.21
2022-12-19T00:21:58.159Z,79.59
2022-12-19T00:25:00.551Z,80.00
2022-12-19T00:28:04.075Z,80.69
2022-12-19T00:31:07.134Z,80.29
2022-12-19T00:34:09.767Z,80.45
2022-12-19T00:37:12.107Z,80.81
2022-12-19T00:40:14.459Z,81.04
2022-12-19T00:43:16.869Z,80.98
2022-12-19T00:46:21.830Z,80.94
2022-12-19T00:49:24.586Z,79.88
2022-12-19T00:52:27.071Z,79.78
2022-12-19T00:55:32.749Z,80.13
2022-12-19T00:58:35.739Z,79.53
2022-12-19T01:01:41.176Z,79.03
2022-12-19T01:04:44.179Z,77.36
2022-12-19T01:07:48.148Z,78.46
2022-12-19T01:10:50.963Z,79.07
2022-12-19T01:13:53.315Z,77.62
2022-12-19T01:16:55.694Z,79.84
2022-12-19T01:19:58.118Z,79.08
2022-12-19T01:23:00.882Z,79.85
2022-12-19T01:26:03.729Z,80.49
2022-12-19T01:29:06.173Z,78.57
2022-12-19T01:32:08.608Z,78.32
2022-12-19T01:35:14.579Z,78.49
2022-12-19T01:38:24.259Z,77.98
2022-12-19T01:41:26.664Z,78.10
2022-12-19T01:44:29.085Z,77.59
2022-12-19T01:47:35.969Z,78.97
2022-12-19T01:50:56.237Z,78.03
2022-12-19T01:54:09.396Z,77.81
2022-12-19T01:57:16.866Z,76.29
2022-12-19T02:00:19.263Z,77.01
2022-12-19T02:03:28.087Z,76.48
2022-12-19T02:06:32.775Z,76.59
2022-12-19T02:09:37.019Z,75.91
2022-12-19T02:12:44.337Z,77.93
2022-12-19T02:15:54.326Z,76.30
2022-12-19T02:19:35.215Z,77.25
2022-12-19T02:22:58.432Z,76.32
2022-12-19T02:26:22.556Z,75.59
2022-12-19T02:29:56.680Z,76.78
2022-12-19T02:33:14.098Z,76.82
2022-12-19T02:36:25.845Z,75.75
2022-12-19T02:39:45.550Z,76.88
2022-12-19T02:42:52.585Z,76.30
2022-12-19T02:45:57.620Z,75.91
2022-12-19T02:49:01.484Z,77.40
2022-12-19T02:52:30.044Z,76.76
2022-12-19T02:55:43.812Z,76.40
2022-12-19T02:59:05.144Z,76.47
2022-12-19T03:02:25.888Z,77.29
2022-12-19T03:05:35.756Z,77.88
2022-12-19T03:08:52.390Z,77.38
2022-12-19T03:12:03.073Z,77.59
2022-12-19T03:15:07.152Z,77.49
2022-12-19T03:18:13.391Z,77.54
2022-12-19T03:21:16.068Z,78.22
2022-12-19T03:24:19.160Z,76.43
2022-12-19T03:27:29.309Z,76.61
2022-12-19T03:30:33.643Z,77.50
2022-12-19T03:33:38.254Z,77.99
2022-12-19T03:36:46.456Z,79.03
2022-12-19T03:39:55.132Z,79.12
2022-12-19T03:43:12.293Z,77.77
2022-12-19T03:46:26.350Z,78.57
2022-12-19T03:49:29.064Z,77.58
2022-12-19T03:52:55.505Z,78.52
2022-12-19T03:56:12.860Z,78.15
2022-12-19T03:59:33.446Z,77.24
2022-12-19T04:02:38.677Z,77.27
2022-12-19T04:05:42.514Z,78.30
2022-12-19T04:08:45.735Z,78.04
2022-12-19T04:11:53.148Z,79.00
2022-12-19T04:14:55.624Z,78.31
2022-12-19T04:18:00.875Z,77.81
2022-12-19T04:21:15.457Z,77.56
2022-12-19T04:24:25.450Z,77.67
2022-12-19T04:27:29.997Z,77.27
2022-12-19T04:30:36.448Z,77.33
2022-12-19T04:33:39.332Z,77.59
2022-12-19T04:36:41.717Z,75.94
2022-12-19T04:39:44.631Z,76.55
2022-12-19T04:42:46.993Z,76.96
2022-12-19T04:45:54.044Z,76.57
2022-12-19T04:48:59.606Z,76.50
2022-12-19T04:52:02.210Z,76.78
2022-12-19T04:55:04.867Z,77.89
2022-12-19T04:58:07.418Z,78.40
2022-12-19T05:01:10.249Z,76.93
2022-12-19T05:04:12.772Z,76.95
2022-12-19T05:07:16.305Z,75.79
2022-12-19T05:10:21.433Z,75.70
2022-12-19T05:13:23.758Z,75.96
2022-12-19T05:16:26.156Z,77.49
2022-12-19T05:19:28.906Z,76.70
2022-12-19T05:22:31.240Z,75.91
2022-12-19T05:25:35.523Z,76.34
2022-12-19T05:28:37.886Z,76.43
2022-12-19T05:31:41.275Z,76.84
2022-12-19T05:34:43.624Z,76.10
2022-12-19T05:37:46.163Z,76.30
2022-12-19T05:40:50.084Z,75.83
2022-12-19T05:43:55.143Z,77.46
2022-12-19T05:46:57.740Z,78.36
2022-12-19T05:50:00.222Z,77.44
2022-12-19T05:53:02.598Z,76.01
2022-12-19T05:56:06.049Z,76.39
2022-12-19T05:59:11.853Z,77.18
2022-12-19T06:02:14.466Z,77.28
2022-12-19T06:05:17.211Z,76.47
2022-12-19T06:08:19.572Z,76.66
2022-12-19T06:11:23.114Z,76.71
2022-12-19T06:14:25.456Z,76.94
2022-12-19T06:17:27.935Z,76.72
2022-12-19T06:20:30.432Z,76.21
2022-12-19T06:23:35.425Z,77.51
2022-12-19T06:26:37.820Z,76.25
2022-12-19T06:29:40.428Z,76.59
2022-12-19T06:32:42.889Z,75.40
2022-12-19T06:35:45.961Z,76.20
2022-12-19T06:38:49.418Z,76.69
2022-12-19T06:42:10.254Z,77.24
2022-12-19T06:45:12.660Z,77.20
2022-12-19T06:48:15.093Z,77.68
2022-12-19T06:51:17.470Z,77.07
2022-12-19T06:54:19.878Z,77.10
2022-12-19T06:57:22.341Z,76.98
2022-12-19T07:00:24.695Z,77.62
2022-12-19T07:03:36.182Z,77.74
2022-12-19T07:06:38.651Z,77.27
2022-12-19T07:09:41.400Z,76.02
2022-12-19T07:12:43.843Z,75.35
2022-12-19T07:15:46.400Z,74.54
2022-12-19T07:18:49.550Z,73.94
2022-12-19T07:21:52.239Z,75.37
2022-12-19T07:24:56.289Z,75.72
2022-12-19T07:27:58.820Z,75.82
2022-12-19T07:31:01.430Z,71.59
2022-12-19T07:34:03.928Z,68.07
2022-12-19T07:37:07.056Z,65.99
2022-12-19T07:40:11.133Z,62.33
2022-12-19T07:43:16.841Z,61.09
2022-12-19T07:46:19.279Z,61.29
2022-12-19T07:49:22.940Z,58.55
2022-12-19T07:52:25.736Z,56.68
2022-12-19T07:55:28.273Z,55.85
2022-12-19T07:58:31.013Z,55.11
2022-12-19T08:01:33.909Z,53.67
2022-12-19T08:04:36.764Z,52.67
2022-12-19T08:07:39.369Z,52.41
2022-12-19T08:10:41.835Z,51.09
2022-12-19T08:13:46.999Z,49.66
2022-12-19T08:17:19.384Z,47.07
2022-12-19T08:20:13.647Z,45.28
2022-12-19T08:23:16.326Z,44.05
2022-12-19T08:26:25.567Z,42.57
2022-12-19T08:29:28.061Z,44.39
2022-12-19T08:32:30.537Z,42.69
2022-12-19T08:35:33.253Z,43.11
2022-12-19T08:38:36.951Z,41.88
2022-12-19T08:41:39.359Z,42.14
2022-12-19T08:44:41.760Z,40.46
2022-12-19T08:47:45.434Z,40.94
2022-12-19T08:50:52.903Z,40.15
2022-12-19T08:53:55.238Z,38.79
2022-12-19T08:56:58.007Z,41.09
2022-12-19T09:00:00.630Z,39.53
2022-12-19T09:03:05.105Z,39.03
2022-12-19T09:06:18.953Z,38.13
2022-12-19T09:09:22.549Z,37.52
2022-12-19T09:12:26.212Z,37.86
2022-12-19T09:15:30.782Z,38.70
2022-12-19T09:18:34.314Z,39.79
2022-12-19T09:21:36.987Z,38.77
2022-12-19T09:24:40.471Z,35.58
2022-12-19T09:28:25.259Z,35.40
2022-12-19T09:31:14.590Z,35.58
2022-12-19T09:34:17.115Z,36.33
2022-12-19T09:37:19.506Z,37.91
2022-12-19T09:40:22.125Z,37.92
2022-12-19T09:43:42.309Z,35.08
2022-12-19T09:46:52.469Z,35.49
2022-12-19T09:49:55.469Z,35.63
2022-12-19T09:53:03.150Z,36.27
2022-12-19T09:56:14.680Z,36.61
2022-12-19T09:59:39.960Z,34.46
2022-12-19T10:03:41.753Z,37.23
2022-12-19T10:07:21.975Z,34.89
2022-12-19T10:12:36.037Z,34.55
2022-12-19T10:14:02.026Z,33.84
2022-12-19T10:17:24.784Z,34.90
2022-12-19T10:20:32.799Z,34.65
2022-12-19T10:23:45.148Z,33.64
2022-12-19T10:26:56.859Z,34.09
2022-12-19T10:30:14.455Z,33.13
2022-12-19T10:33:24.145Z,34.84
2022-12-19T10:36:55.961Z,33.43
2022-12-19T10:40:27.247Z,40.21
2022-12-19T10:43:46.532Z,40.45
2022-12-19T10:46:50.714Z,37.24
2022-12-19T10:49:53.359Z,35.60
2022-12-19T10:53:11.358Z,34.64
2022-12-19T10:56:23.460Z,37.39
2022-12-19T10:59:28.135Z,35.92
2022-12-19T11:02:46.146Z,36.77
2022-12-19T11:05:57.656Z,37.16
2022-12-19T11:09:21.163Z,35.53
2022-12-19T11:15:18.551Z,36.72
2022-12-19T11:23:28.391Z,32.87
2022-12-19T11:29:26.221Z,35.18
2022-12-19T11:29:41.548Z,34.31
2022-12-19T11:30:58.892Z,35.09
2022-12-19T11:33:47.105Z,34.71
2022-12-19T11:37:09.738Z,35.63
2022-12-19T11:40:33.947Z,38.31
2022-12-19T11:44:05.284Z,39.91
2022-12-19T11:47:28.719Z,40.43
2022-12-19T11:50:35.160Z,40.69
2022-12-19T11:54:13.193Z,38.80
2022-12-19T11:57:15.638Z,41.36
2022-12-19T12:00:21.507Z,40.86
2022-12-19T12:03:42.458Z,38.42
2022-12-19T12:07:00.065Z,39.99
2022-12-19T12:15:37.081Z,40.83
2022-12-19T12:22:58.184Z,42.56
2022-12-19T12:31:07.462Z,41.45
2022-12-19T12:31:07.885Z,40.68
2022-12-19T12:31:47.319Z,38.80
2022-12-19T12:31:50.447Z,37.43
2022-12-19T12:35:16.386Z,38.58
2022-12-19T12:39:29.730Z,39.19
2022-12-19T12:43:04.063Z,37.30
2022-12-19T12:46:19.742Z,38.01
2022-12-19T12:49:45.303Z,39.43
2022-12-19T12:52:53.091Z,40.44
2022-12-19T12:55:59.005Z,40.71
2022-12-19T12:59:01.599Z,41.34
2022-12-19T13:02:16.748Z,42.79
2022-12-19T13:05:40.673Z,46.37
2022-12-19T13:08:48.634Z,47.22
2022-12-19T13:12:21.561Z,49.39
2022-12-19T13:15:27.055Z,52.46
2022-12-19T13:18:35.583Z,52.20
2022-12-19T13:22:07.446Z,53.78
2022-12-19T13:25:49.677Z,54.06
2022-12-19T13:28:52.204Z,55.76
2022-12-19T13:32:12.645Z,56.84
2022-12-19T13:36:24.473Z,57.59
2022-12-19T13:39:57.477Z,59.11
2022-12-19T13:42:35.360Z,60.78
2022-12-19T13:45:41.127Z,61.48
2022-12-19T13:48:49.524Z,62.96
2022-12-19T13:51:57.572Z,62.66
2022-12-19T13:55:00.009Z,62.53
2022-12-19T13:58:04.069Z,64.06
2022-12-19T14:01:20.762Z,64.47
2022-12-19T14:04:28.673Z,64.03
2022-12-19T14:07:42.087Z,64.09
2022-12-19T14:11:34.423Z,63.06
2022-12-19T14:14:34.631Z,64.50
2022-12-19T14:17:37.192Z,64.34
2022-12-19T14:22:06.238Z,65.64
2022-12-19T14:24:19.039Z,66.09
2022-12-19T14:28:21.198Z,67.23
2022-12-19T14:31:00.508Z,68.24
2022-12-19T14:34:35.445Z,68.78
2022-12-19T14:38:54.437Z,69.08
2022-12-19T14:41:07.570Z,70.11
2022-12-19T14:52:08.593Z,69.73
2022-12-19T14:54:07.204Z,71.35
2022-12-19T14:54:23.527Z,70.78
2022-12-19T14:58:53.191Z,72.30
2022-12-19T15:01:27.572Z,71.96
2022-12-19T15:04:51.447Z,71.51
2022-12-19T15:07:59.433Z,71.97
2022-12-19T15:11:41.411Z,72.65
2022-12-19T15:14:59.219Z,72.37
2022-12-19T15:18:04.637Z,73.06
2022-12-19T15:21:12.798Z,73.19
2022-12-19T15:24:15.183Z,74.06
2022-12-19T15:27:17.783Z,73.27
2022-12-19T15:30:22.214Z,73.54
2022-12-19T15:33:24.829Z,74.22
2022-12-19T15:36:27.306Z,74.06
2022-12-19T15:39:30.351Z,74.38
2022-12-19T15:42:32.990Z,74.32
2022-12-19T15:45:35.327Z,73.74
2022-12-19T15:48:42.778Z,74.29
2022-12-19T15:51:46.131Z,75.75
2022-12-19T15:54:50.126Z,75.46
2022-12-19T15:57:59.782Z,75.83
2022-12-19T16:01:04.375Z,76.23
2022-12-19T16:04:13.331Z,76.11
2022-12-19T16:07:25.623Z,77.05
2022-12-19T16:10:28.070Z,76.07
2022-12-19T16:13:36.472Z,76.14
2022-12-19T16:16:39.299Z,76.43
2022-12-19T16:19:42.142Z,76.21
2022-12-19T16:22:44.581Z,76.94
2022-12-19T16:25:53.101Z,76.11
2022-12-19T16:28:55.747Z,77.05
2022-12-19T16:31:58.231Z,77.83
2022-12-19T16:35:00.633Z,77.24
2022-12-19T16:38:03.018Z,77.29
2022-12-19T16:41:05.590Z,77.06
2022-12-19T16:44:22.345Z,76.28
2022-12-19T16:47:24.776Z,76.38
2022-12-19T16:50:31.255Z,77.20
2022-12-19T16:53:33.601Z,76.57
2022-12-19T16:56:42.114Z,77.04
2022-12-19T16:59:44.682Z,76.71
2022-12-19T17:02:49.868Z,76.79
2022-12-19T17:05:52.401Z,77.20
2022-12-19T17:08:54.807Z,76.69
2022-12-19T17:12:00.135Z,77.02
2022-12-19T17:15:05.842Z,76.66
2022-12-19T17:18:15.907Z,77.42
2022-12-19T17:21:22.908Z,77.00
2022-12-19T17:24:25.398Z,77.29
2022-12-19T17:27:27.756Z,77.04
2022-12-19T17:30:30.370Z,77.28
2022-12-19T17:33:38.178Z,77.74
2022-12-19T17:36:40.616Z,78.10
2022-12-19T17:39:43.005Z,78.27
2022-12-19T17:42:45.407Z,77.16
2022-12-19T17:45:49.689Z,77.42
2022-12-19T17:48:53.508Z,77.42
2022-12-19T17:51:57.103Z,77.64
2022-12-19T17:54:59.446Z,77.56
2022-12-19T17:58:01.832Z,77.58
2022-12-19T18:01:04.371Z,77.26
2022-12-19T18:04:07.652Z,77.91
2022-12-19T18:07:14.991Z,77.88
2022-12-19T18:10:19.984Z,77.90
2022-12-19T18:13:23.103Z,78.41
2022-12-19T18:16:30.823Z,78.17
2022-12-19T18:19:34.727Z,78.01
2022-12-19T18:22:37.129Z,78.50
2022-12-19T18:25:41.412Z,77.45
2022-12-19T18:28:44.041Z,77.89
2022-12-19T18:31:50.860Z,77.81
2022-12-19T18:34:53.846Z,78.13
2022-12-19T18:37:59.701Z,78.00
2022-12-19T18:41:02.178Z,78.07
2022-12-19T18:44:04.831Z,77.85
2022-12-19T18:47:19.639Z,78.15
2022-12-19T18:50:24.163Z,79.01
2022-12-19T18:53:35.196Z,79.15
2022-12-19T18:56:38.454Z,79.21
2022-12-19T18:59:40.990Z,79.19
2022-12-19T19:02:57.176Z,79.21
2022-12-19T19:06:00.444Z,78.95
2022-12-19T19:09:03.294Z,79.12
2022-12-19T19:12:24.357Z,80.08
2022-12-19T19:15:31.217Z,79.66
2022-12-19T19:18:39.213Z,79.28
2022-12-19T19:21:42.783Z,79.75
2022-12-19T19:24:45.293Z,80.02
2022-12-19T19:27:47.829Z,79.72
2022-12-19T19:30:51.569Z,79.12
2022-12-19T19:33:59.804Z,78.71
2022-12-19T19:37:06.004Z,78.82
2022-12-19T19:40:09.327Z,79.27
2022-12-19T19:43:12.002Z,78.54
2022-12-19T19:46:14.439Z,78.83
2022-12-19T19:49:16.901Z,78.52
2022-12-19T19:52:19.297Z,78.20
2022-12-19T19:55:21.741Z,78.75
2022-12-19T19:58:24.542Z,79.20
2022-12-19T20:01:28.522Z,79.49
2022-12-19T20:04:31.193Z,79.21
2022-12-19T20:07:33.613Z,79.25
2022-12-19T20:10:35.982Z,80.49
2022-12-19T20:13:38.807Z,80.31
2022-12-19T20:16:43.397Z,80.04
2022-12-19T20:19:45.779Z,79.92
2022-12-19T20:22:48.419Z,80.00
2022-12-19T20:25:51.015Z,79.72
2022-12-19T20:28:53.588Z,80.67
2022-12-19T20:31:56.567Z,79.73
2022-12-19T20:34:59.421Z,79.81
2022-12-19T20:38:02.101Z,80.10
2022-12-19T20:41:05.030Z,79.57
2022-12-19T20:44:07.756Z,80.91
2022-12-19T20:47:10.126Z,79.97
2022-12-19T20:50:13.004Z,80.08
2022-12-19T20:53:15.482Z,79.17
2022-12-19T20:56:19.223Z,79.28
2022-12-19T20:59:21.843Z,79.42
2022-12-19T21:02:24.386Z,79.89
2022-12-19T21:05:26.896Z,80.38
2022-12-19T21:08:30.043Z,79.32
2022-12-19T21:11:33.460Z,80.03
2022-12-19T21:14:35.876Z,79.77
2022-12-19T21:17:38.325Z,80.07
2022-12-19T21:20:42.824Z,79.70
2022-12-19T21:23:45.738Z,78.98
2022-12-19T21:26:57.524Z,79.54
2022-12-19T21:30:00.572Z,79.92
2022-12-19T21:33:03.923Z,79.48
2022-12-19T21:36:12.954Z,79.81
2022-12-19T21:39:15.579Z,80.16
2022-12-19T21:42:18.057Z,80.51
2022-12-19T21:45:20.434Z,79.10
2022-12-19T21:48:22.815Z,79.55
2022-12-19T21:51:30.740Z,80.73
2022-12-19T21:54:33.141Z,79.45
2022-12-19T21:57:42.456Z,80.59
2022-12-19T22:00:48.294Z,80.71
2022-12-19T22:03:51.813Z,81.35
2022-12-19T22:06:54.257Z,81.36
2022-12-19T22:09:56.760Z,81.75
2022-12-19T22:12:59.137Z,81.38
2022-12-19T22:16:02.083Z,80.52
2022-12-19T22:19:06.038Z,80.58
2022-12-19T22:22:08.511Z,81.78
2022-12-19T22:25:10.893Z,80.33
2022-12-19T22:28:13.316Z,80.53
2022-12-19T22:31:17.209Z,80.86
2022-12-19T22:34:21.131Z,81.04
2022-12-19T22:37:23.692Z,80.34
2022-12-19T22:40:27.840Z,81.24
2022-12-19T22:43:30.933Z,80.53
2022-12-19T22:46:36.188Z,80.61
2022-12-19T22:49:38.778Z,80.82
2022-12-19T22:52:41.273Z,80.79
2022-12-19T22:55:43.879Z,78.23
2022-12-19T22:58:49.009Z,77.99
2022-12-19T23:01:51.898Z,78.67
2022-12-19T23:04:54.460Z,78.84
2022-12-19T23:07:56.804Z,80.29
2022-12-19T23:10:59.300Z,79.63
2022-12-19T23:14:03.112Z,79.15
2022-12-19T23:17:05.559Z,79.33
2022-12-19T23:20:09.076Z,78.93
2022-12-19T23:23:11.459Z,78.97
2022-12-19T23:26:17.147Z,79.45
2022-12-19T23:29:19.597Z,80.17
2022-12-19T23:32:22.193Z,79.34
2022-12-19T23:35:24.565Z,78.35
2022-12-19T23:38:27.594Z,78.82
2022-12-19T23:41:30.081Z,79.43
2022-12-19T23:44:32.686Z,79.08
2022-12-19T23:47:35.049Z,78.83
2022-12-19T23:50:37.424Z,78.04
2022-12-19T23:53:40.231Z,78.63
2022-12-19T23:56:42.605Z,78.80
2022-12-19T23:59:45.072Z,79.25
